N29BU EHAM-KPQI
Flight info
| Callsign | N29BU |
|---|---|
| Flight time | N/A |
| Altitude | 45000 |
| Route | BERGI L60 PENIL M144 BAGSO DCT DOGAL NATA TUDEP N530A MIILS |
| Aircraft | C700/M-SBDGHM1RWXY/LB2 |
Departure
| Time | 2026-04-27 14:06 |
|---|---|
| Airport | Amsterdam Airport Schiphol (EHAM) |
Arrival
| Time | N/A |
|---|---|
| Airport | Presque Isle International Airport (KPQI) |
| Time | Latitude | Longitude | Altitude | Speed | Heading |
|---|---|---|---|---|---|
| 2026-04-27 13:48 | 52.31182 | 4.80574 | -10 ft | 0 kts | 130° |
| 2026-04-27 14:00 | 52.31180 | 4.80577 | -10 ft | 1 kts | 130° |
| 2026-04-27 14:00 | 52.31150 | 4.80604 | -10 ft | 5 kts | 206° |
| 2026-04-27 14:00 | 52.31158 | 4.80547 | -9 ft | 8 kts | 307° |
| 2026-04-27 14:00 | 52.31150 | 4.80459 | -10 ft | 10 kts | 221° |
| 2026-04-27 14:01 | 52.31091 | 4.80376 | -10 ft | 10 kts | 221° |
| 2026-04-27 14:01 | 52.31049 | 4.80312 | -10 ft | 10 kts | 231° |
| 2026-04-27 14:01 | 52.31056 | 4.80173 | -11 ft | 15 kts | 258° |
| 2026-04-27 14:01 | 52.30966 | 4.80026 | -13 ft | 23 kts | 220° |
| 2026-04-27 14:02 | 52.30829 | 4.79828 | -14 ft | 30 kts | 221° |
| 2026-04-27 14:02 | 52.30673 | 4.79603 | -11 ft | 30 kts | 222° |
| 2026-04-27 14:02 | 52.30516 | 4.79379 | -11 ft | 31 kts | 220° |
| 2026-04-27 14:02 | 52.30353 | 4.79144 | -14 ft | 32 kts | 221° |
| 2026-04-27 14:03 | 52.30182 | 4.78905 | -13 ft | 32 kts | 221° |
| 2026-04-27 14:03 | 52.30050 | 4.78712 | -9 ft | 17 kts | 222° |
| 2026-04-27 14:03 | 52.30044 | 4.78615 | -9 ft | 9 kts | 314° |
| 2026-04-27 14:03 | 52.30060 | 4.78589 | -9 ft | 0 kts | 314° |
| 2026-04-27 14:04 | 52.30080 | 4.78555 | -9 ft | 11 kts | 313° |
| 2026-04-27 14:04 | 52.30136 | 4.78486 | -11 ft | 8 kts | 40° |
| 2026-04-27 14:05 | 52.30142 | 4.78497 | -11 ft | 0 kts | 44° |
| 2026-04-27 14:05 | 52.30147 | 4.78504 | -11 ft | 6 kts | 44° |
| 2026-04-27 14:05 | 52.30358 | 4.78811 | -15 ft | 80 kts | 41° |
| 2026-04-27 14:05 | 52.30963 | 4.79688 | 3 ft | 148 kts | 44° |
| 2026-04-27 14:06 | 52.31830 | 4.81015 | 359 ft | 189 kts | 43° |
| 2026-04-27 14:06 | 52.32828 | 4.82452 | 1500 ft | 192 kts | 37° |
| 2026-04-27 14:06 | 52.33995 | 4.83494 | 2666 ft | 196 kts | 19° |
| 2026-04-27 14:06 | 52.35404 | 4.83925 | 3628 ft | 220 kts | 2° |
| 2026-04-27 14:07 | 52.37034 | 4.83978 | 4510 ft | 246 kts | 2° |
| 2026-04-27 14:07 | 52.38792 | 4.84113 | 5761 ft | 255 kts | 3° |
| 2026-04-27 14:07 | 52.40654 | 4.84280 | 6782 ft | 270 kts | 2° |
| 2026-04-27 14:07 | 52.42482 | 4.84429 | 8476 ft | 263 kts | 1° |
| 2026-04-27 14:08 | 52.44354 | 4.84574 | 9614 ft | 276 kts | 1° |
| 2026-04-27 14:08 | 52.46311 | 4.84734 | 10773 ft | 290 kts | 1° |
| 2026-04-27 14:08 | 52.48392 | 4.84904 | 11542 ft | 317 kts | 1° |
| 2026-04-27 14:08 | 52.50686 | 4.84761 | 12305 ft | 343 kts | 348° |
| 2026-04-27 14:09 | 52.53000 | 4.83618 | 13584 ft | 349 kts | 335° |
| 2026-04-27 14:09 | 52.55099 | 4.81589 | 14894 ft | 353 kts | 321° |
| 2026-04-27 14:09 | 52.56844 | 4.78714 | 16133 ft | 357 kts | 306° |
| 2026-04-27 14:09 | 52.58287 | 4.75356 | 17351 ft | 362 kts | 303° |
| 2026-04-27 14:10 | 52.59732 | 4.71923 | 18510 ft | 368 kts | 303° |
| 2026-04-27 14:10 | 52.61197 | 4.68446 | 19443 ft | 372 kts | 303° |
| 2026-04-27 14:10 | 52.62688 | 4.64922 | 20319 ft | 377 kts | 302° |
| 2026-04-27 14:10 | 52.64190 | 4.61365 | 21131 ft | 381 kts | 302° |
| 2026-04-27 14:11 | 52.65707 | 4.57761 | 21933 ft | 384 kts | 302° |
| 2026-04-27 14:11 | 52.67235 | 4.54126 | 22726 ft | 388 kts | 302° |
| 2026-04-27 14:11 | 52.68760 | 4.50494 | 23540 ft | 391 kts | 302° |
| 2026-04-27 14:11 | 52.70313 | 4.46791 | 24271 ft | 394 kts | 302° |
| 2026-04-27 14:12 | 52.71879 | 4.43052 | 24914 ft | 397 kts | 301° |
| 2026-04-27 14:12 | 52.73452 | 4.39283 | 25549 ft | 400 kts | 301° |
| 2026-04-27 14:12 | 52.74841 | 4.35299 | 26163 ft | 401 kts | 293° |
| 2026-04-27 14:12 | 52.75865 | 4.31012 | 26782 ft | 402 kts | 286° |
| 2026-04-27 14:13 | 52.76743 | 4.26606 | 27380 ft | 406 kts | 286° |
| 2026-04-27 14:13 | 52.77648 | 4.22158 | 27984 ft | 409 kts | 286° |
| 2026-04-27 14:13 | 52.78557 | 4.17683 | 28570 ft | 413 kts | 286° |
| 2026-04-27 14:13 | 52.79464 | 4.13161 | 29150 ft | 416 kts | 286° |
| 2026-04-27 14:14 | 52.80373 | 4.08610 | 29708 ft | 419 kts | 286° |
| 2026-04-27 14:14 | 52.81294 | 4.04013 | 30263 ft | 423 kts | 286° |
| 2026-04-27 14:14 | 52.82220 | 3.99384 | 30701 ft | 427 kts | 286° |
| 2026-04-27 14:14 | 52.83153 | 3.94701 | 31135 ft | 430 kts | 286° |
| 2026-04-27 14:15 | 52.84076 | 3.90059 | 31753 ft | 428 kts | 286° |
| 2026-04-27 14:15 | 52.85002 | 3.85387 | 32392 ft | 427 kts | 286° |
| 2026-04-27 14:15 | 52.85925 | 3.80717 | 33011 ft | 425 kts | 286° |
| 2026-04-27 14:15 | 52.86842 | 3.76067 | 33625 ft | 424 kts | 286° |
| 2026-04-27 14:16 | 52.87754 | 3.71440 | 34226 ft | 423 kts | 286° |
| 2026-04-27 14:16 | 52.88663 | 3.66806 | 34713 ft | 422 kts | 286° |
| 2026-04-27 14:16 | 52.89571 | 3.62170 | 35128 ft | 423 kts | 286° |
| 2026-04-27 14:16 | 52.90477 | 3.57535 | 35550 ft | 423 kts | 286° |
| 2026-04-27 14:17 | 52.91372 | 3.52945 | 35948 ft | 424 kts | 286° |
| 2026-04-27 14:17 | 52.92291 | 3.48221 | 36276 ft | 427 kts | 287° |
| 2026-04-27 14:17 | 52.93191 | 3.43582 | 36667 ft | 427 kts | 287° |
| 2026-04-27 14:17 | 52.94100 | 3.38886 | 37052 ft | 428 kts | 287° |
| 2026-04-27 14:18 | 52.95008 | 3.34183 | 37426 ft | 429 kts | 287° |
| 2026-04-27 14:18 | 52.95915 | 3.29471 | 37795 ft | 429 kts | 287° |
| 2026-04-27 14:18 | 52.96826 | 3.24730 | 38172 ft | 430 kts | 287° |
| 2026-04-27 14:18 | 52.97733 | 3.19996 | 38490 ft | 431 kts | 287° |
| 2026-04-27 14:19 | 52.98642 | 3.15243 | 38847 ft | 432 kts | 288° |
| 2026-04-27 14:19 | 52.99550 | 3.10482 | 39129 ft | 433 kts | 288° |
| 2026-04-27 14:19 | 53.00455 | 3.05718 | 39395 ft | 433 kts | 288° |
| 2026-04-27 14:19 | 53.01360 | 3.00947 | 39692 ft | 432 kts | 288° |
| 2026-04-27 14:20 | 53.02258 | 2.96201 | 40005 ft | 431 kts | 288° |
| 2026-04-27 14:20 | 53.03144 | 2.91507 | 40222 ft | 431 kts | 288° |
| 2026-04-27 14:20 | 53.04052 | 2.86688 | 40459 ft | 432 kts | 288° |
| 2026-04-27 14:20 | 53.04935 | 2.81982 | 40678 ft | 432 kts | 288° |
| 2026-04-27 14:21 | 53.05829 | 2.77212 | 40896 ft | 433 kts | 288° |
| 2026-04-27 14:21 | 53.06722 | 2.72432 | 41112 ft | 433 kts | 288° |
| 2026-04-27 14:21 | 53.07613 | 2.67651 | 41318 ft | 433 kts | 288° |
| 2026-04-27 14:21 | 53.08504 | 2.62856 | 41525 ft | 434 kts | 288° |
| 2026-04-27 14:22 | 53.09394 | 2.58054 | 41733 ft | 434 kts | 287° |
| 2026-04-27 14:22 | 53.10280 | 2.53266 | 41915 ft | 434 kts | 287° |
| 2026-04-27 14:22 | 53.11011 | 2.48378 | 42117 ft | 435 kts | 280° |
| 2026-04-27 14:22 | 53.11426 | 2.43384 | 42286 ft | 436 kts | 278° |
| 2026-04-27 14:23 | 53.11837 | 2.38380 | 42465 ft | 436 kts | 279° |
| 2026-04-27 14:23 | 53.12257 | 2.33370 | 42641 ft | 436 kts | 279° |
| 2026-04-27 14:23 | 53.12667 | 2.28363 | 42813 ft | 437 kts | 278° |
| 2026-04-27 14:23 | 53.13064 | 2.23408 | 42974 ft | 437 kts | 278° |
| 2026-04-27 14:24 | 53.13469 | 2.18380 | 43135 ft | 437 kts | 278° |
| 2026-04-27 14:24 | 53.13875 | 2.13348 | 43291 ft | 438 kts | 278° |
| 2026-04-27 14:24 | 53.14278 | 2.08315 | 43446 ft | 438 kts | 278° |
| 2026-04-27 14:24 | 53.14677 | 2.03273 | 43593 ft | 438 kts | 278° |
| 2026-04-27 14:25 | 53.15075 | 1.98234 | 43731 ft | 439 kts | 278° |
| 2026-04-27 14:25 | 53.15471 | 1.93193 | 43879 ft | 439 kts | 278° |
| 2026-04-27 14:25 | 53.15866 | 1.88142 | 44021 ft | 439 kts | 278° |
| 2026-04-27 14:25 | 53.16253 | 1.83157 | 44152 ft | 439 kts | 278° |
| 2026-04-27 14:26 | 53.16643 | 1.78099 | 44292 ft | 440 kts | 278° |
| 2026-04-27 14:26 | 53.17032 | 1.73033 | 44423 ft | 440 kts | 278° |
| 2026-04-27 14:26 | 53.17419 | 1.67964 | 44553 ft | 440 kts | 278° |
| 2026-04-27 14:26 | 53.17805 | 1.62884 | 44678 ft | 440 kts | 278° |
| 2026-04-27 14:27 | 53.18188 | 1.57809 | 44802 ft | 441 kts | 278° |
| 2026-04-27 14:27 | 53.18943 | 1.47719 | 45001 ft | 442 kts | 278° |
| 2026-04-27 14:27 | 53.19320 | 1.42629 | 45108 ft | 442 kts | 278° |
| 2026-04-27 14:28 | 53.19696 | 1.37539 | 45214 ft | 442 kts | 278° |
| 2026-04-27 14:28 | 53.20315 | 1.29066 | 45281 ft | 444 kts | 278° |
| 2026-04-27 14:29 | 53.21060 | 1.18773 | 45291 ft | 449 kts | 278° |
| 2026-04-27 14:29 | 53.21802 | 1.08381 | 45298 ft | 453 kts | 278° |
| 2026-04-27 14:30 | 53.22542 | 0.97885 | 45289 ft | 456 kts | 278° |
| 2026-04-27 14:30 | 53.23270 | 0.87436 | 45291 ft | 454 kts | 278° |
| 2026-04-27 14:31 | 53.23986 | 0.77012 | 45288 ft | 450 kts | 278° |
| 2026-04-27 14:31 | 53.24690 | 0.66645 | 45282 ft | 450 kts | 277° |
| 2026-04-27 14:32 | 53.25383 | 0.56288 | 45297 ft | 452 kts | 278° |
| 2026-04-27 14:32 | 53.26075 | 0.45810 | 45289 ft | 454 kts | 277° |
| 2026-04-27 14:33 | 53.26758 | 0.35339 | 45286 ft | 451 kts | 277° |
| 2026-04-27 14:33 | 53.27427 | 0.24930 | 45282 ft | 449 kts | 277° |
| 2026-04-27 14:34 | 53.28042 | 0.15220 | 45280 ft | 447 kts | 277° |
| 2026-04-27 14:34 | 53.28686 | 0.04928 | 45279 ft | 448 kts | 277° |
| 2026-04-27 14:35 | 53.29697 | -0.05363 | 45263 ft | 449 kts | 281° |
| 2026-04-27 14:35 | 53.30756 | -0.15683 | 45268 ft | 451 kts | 281° |
| 2026-04-27 14:36 | 53.31827 | -0.26056 | 45267 ft | 453 kts | 281° |
| 2026-04-27 14:36 | 53.32885 | -0.36455 | 45272 ft | 453 kts | 281° |
| 2026-04-27 14:37 | 53.33933 | -0.46829 | 45264 ft | 450 kts | 281° |
| 2026-04-27 14:37 | 53.34964 | -0.57133 | 45263 ft | 448 kts | 281° |
| 2026-04-27 14:38 | 53.35984 | -0.67419 | 45259 ft | 448 kts | 281° |
| 2026-04-27 14:38 | 53.36993 | -0.77670 | 45263 ft | 450 kts | 281° |